createdAt,value
2017-11-17T00:01:38.335Z,99.90
2017-11-17T00:04:05.762Z,99.90
2017-11-17T00:06:34.007Z,99.90
2017-11-17T00:09:01.460Z,99.90
2017-11-17T00:11:28.901Z,99.90
2017-11-17T00:13:56.383Z,99.90
2017-11-17T00:16:23.855Z,99.90
2017-11-17T00:18:51.397Z,99.90
2017-11-17T00:21:18.875Z,99.90
2017-11-17T00:23:46.303Z,99.90
2017-11-17T00:26:13.786Z,99.90
2017-11-17T00:28:41.272Z,99.90
2017-11-17T00:31:08.763Z,99.90
2017-11-17T00:33:36.999Z,99.90
2017-11-17T00:36:04.459Z,99.90
2017-11-17T00:38:31.914Z,99.90
2017-11-17T00:40:59.344Z,99.90
2017-11-17T00:43:27.534Z,99.90
2017-11-17T00:45:55.027Z,99.90
2017-11-17T00:48:22.782Z,99.90
2017-11-17T00:50:50.195Z,99.90
2017-11-17T00:53:18.459Z,99.90
2017-11-17T00:55:45.899Z,99.90
2017-11-17T00:58:13.346Z,99.90
2017-11-17T01:00:40.767Z,99.90
2017-11-17T01:03:08.986Z,99.90
2017-11-17T01:05:36.407Z,99.90
2017-11-17T01:08:04.594Z,99.90
2017-11-17T01:10:32.020Z,99.90
2017-11-17T01:12:59.484Z,99.90
2017-11-17T01:15:27.684Z,99.90
2017-11-17T01:17:55.888Z,99.90
2017-11-17T01:20:23.366Z,99.90
2017-11-17T01:22:50.823Z,99.90
2017-11-17T01:25:18.258Z,99.90
2017-11-17T01:27:45.758Z,99.90
2017-11-17T01:30:13.184Z,99.90
2017-11-17T01:32:40.666Z,99.90
2017-11-17T01:35:08.135Z,99.90
2017-11-17T01:37:35.563Z,99.90
2017-11-17T01:40:02.979Z,99.90
2017-11-17T01:42:30.407Z,99.90
2017-11-17T01:44:57.822Z,99.90
2017-11-17T01:47:26.056Z,99.90
2017-11-17T01:49:53.492Z,99.90
2017-11-17T01:52:21.695Z,99.90
2017-11-17T01:54:49.119Z,99.90
2017-11-17T01:57:17.299Z,99.90
2017-11-17T01:59:44.731Z,99.90
2017-11-17T02:02:19.911Z,99.90
2017-11-17T02:04:47.335Z,99.90
2017-11-17T02:07:14.787Z,99.90
2017-11-17T02:09:42.310Z,99.90
2017-11-17T02:12:09.756Z,99.90
2017-11-17T02:14:37.204Z,99.90
2017-11-17T02:17:05.675Z,99.90
2017-11-17T02:19:33.175Z,99.90
2017-11-17T02:22:00.591Z,99.90
2017-11-17T02:24:28.815Z,99.90
2017-11-17T02:26:56.320Z,99.90
2017-11-17T02:29:23.839Z,99.90
2017-11-17T02:31:51.262Z,99.90
2017-11-17T02:34:19.447Z,99.90
2017-11-17T02:36:47.634Z,99.90
2017-11-17T02:39:15.127Z,99.90
2017-11-17T02:41:42.554Z,99.90
2017-11-17T02:44:10.050Z,99.90
2017-11-17T02:46:37.462Z,99.90
2017-11-17T02:49:05.685Z,99.90
2017-11-17T02:51:33.108Z,99.90
2017-11-17T02:54:01.318Z,99.90
2017-11-17T02:56:28.787Z,99.90
2017-11-17T02:58:56.211Z,99.90
2017-11-17T03:01:24.423Z,99.90
2017-11-17T03:03:51.850Z,99.90
2017-11-17T03:06:19.356Z,99.90
2017-11-17T03:08:46.780Z,99.90
2017-11-17T03:11:14.264Z,99.90
2017-11-17T03:13:41.731Z,99.90
2017-11-17T03:16:09.192Z,99.90
2017-11-17T03:18:36.647Z,99.90
2017-11-17T03:21:04.119Z,99.90
2017-11-17T03:23:31.575Z,99.90
2017-11-17T03:25:59.048Z,99.90
2017-11-17T03:28:26.471Z,99.90
2017-11-17T03:30:53.902Z,99.90
2017-11-17T03:33:22.128Z,99.90
2017-11-17T03:35:49.556Z,99.90
2017-11-17T03:38:17.739Z,99.90
2017-11-17T03:40:45.972Z,99.90
2017-11-17T03:43:13.383Z,99.90
2017-11-17T03:45:40.883Z,99.90
2017-11-17T03:48:08.331Z,99.90
2017-11-17T03:50:35.812Z,99.90
2017-11-17T03:53:03.271Z,99.90
2017-11-17T03:55:30.723Z,99.90
2017-11-17T03:57:58.276Z,99.90
2017-11-17T04:00:25.704Z,99.90
2017-11-17T04:02:53.904Z,99.90
2017-11-17T04:05:21.378Z,99.90
2017-11-17T04:07:48.803Z,99.90
2017-11-17T04:10:17.023Z,99.90
2017-11-17T04:12:44.446Z,99.90
2017-11-17T04:15:12.634Z,99.90
2017-11-17T04:17:40.051Z,99.90
2017-11-17T04:20:07.475Z,99.90
2017-11-17T04:22:34.887Z,99.90
2017-11-17T04:25:03.082Z,99.90
2017-11-17T04:27:31.283Z,99.90
2017-11-17T04:29:58.756Z,99.90
2017-11-17T04:32:26.214Z,99.90
2017-11-17T04:34:53.679Z,99.90
2017-11-17T04:37:21.095Z,99.90
2017-11-17T04:39:49.287Z,99.90
2017-11-17T04:42:16.778Z,99.90
2017-11-17T04:44:44.204Z,99.90
2017-11-17T04:47:12.395Z,99.90
2017-11-17T04:49:39.828Z,99.90
2017-11-17T04:52:08.056Z,99.90
2017-11-17T04:54:35.514Z,99.90
2017-11-17T04:57:02.932Z,99.90
2017-11-17T04:59:31.156Z,99.90
2017-11-17T05:01:58.578Z,99.90
2017-11-17T05:04:26.795Z,99.90
2017-11-17T05:06:54.230Z,99.90
2017-11-17T05:09:21.651Z,99.90
2017-11-17T05:11:49.071Z,99.90
2017-11-17T05:14:16.487Z,99.90
2017-11-17T05:16:44.703Z,99.90
2017-11-17T05:19:12.181Z,99.90
2017-11-17T05:21:39.611Z,99.90
2017-11-17T05:24:07.031Z,99.90
2017-11-17T05:26:34.454Z,99.90
2017-11-17T05:29:01.927Z,99.90
2017-11-17T05:31:29.471Z,99.90
2017-11-17T05:33:56.947Z,99.90
2017-11-17T05:36:24.403Z,99.90
2017-11-17T05:38:51.826Z,99.90
2017-11-17T05:41:20.055Z,99.90
2017-11-17T05:43:47.495Z,99.90
2017-11-17T05:46:14.928Z,99.90
2017-11-17T05:48:43.111Z,99.90
2017-11-17T05:51:11.295Z,99.90
2017-11-17T05:53:38.787Z,99.90
2017-11-17T05:56:06.222Z,99.90
2017-11-17T05:58:33.664Z,99.90
2017-11-17T06:01:01.851Z,99.90
2017-11-17T06:03:29.340Z,99.90
2017-11-17T06:05:56.772Z,99.90
2017-11-17T06:08:24.959Z,99.90
2017-11-17T06:10:52.403Z,99.90
2017-11-17T06:13:20.720Z,99.90
2017-11-17T06:15:48.153Z,99.90
2017-11-17T06:18:16.363Z,99.90
2017-11-17T06:20:43.787Z,99.90
2017-11-17T06:23:11.980Z,99.90
2017-11-17T06:25:39.407Z,99.90
2017-11-17T06:28:06.918Z,99.90
2017-11-17T06:30:34.379Z,99.90
2017-11-17T06:33:01.800Z,99.90
2017-11-17T06:35:30.023Z,99.90
2017-11-17T06:37:57.493Z,99.90
2017-11-17T06:40:24.951Z,99.90
2017-11-17T06:42:52.371Z,99.90
2017-11-17T06:45:20.583Z,99.90
2017-11-17T06:47:48.043Z,99.90
2017-11-17T06:50:15.511Z,99.90
2017-11-17T06:52:42.927Z,99.90
2017-11-17T06:55:11.155Z,99.90
2017-11-17T06:57:38.580Z,99.90
2017-11-17T07:00:06.774Z,99.90
2017-11-17T07:02:34.188Z,99.90
2017-11-17T07:05:01.612Z,99.90
2017-11-17T07:07:29.043Z,99.90
2017-11-17T07:09:56.523Z,99.90
2017-11-17T07:12:23.951Z,99.90
2017-11-17T07:14:52.136Z,99.90
2017-11-17T07:17:20.346Z,99.90
2017-11-17T07:19:47.811Z,99.90
2017-11-17T07:22:15.235Z,99.90
2017-11-17T07:24:43.414Z,99.90
2017-11-17T07:27:11.617Z,99.90
2017-11-17T07:29:39.050Z,99.90
2017-11-17T07:32:07.248Z,99.90
2017-11-17T07:34:34.671Z,99.90
2017-11-17T07:37:02.185Z,99.90
2017-11-17T07:39:29.635Z,99.90
2017-11-17T07:41:57.056Z,99.90
2017-11-17T07:44:24.471Z,99.90
2017-11-17T07:46:51.916Z,99.90
2017-11-17T07:49:19.402Z,99.90
2017-11-17T07:51:46.832Z,99.90
2017-11-17T07:54:14.250Z,99.90
2017-11-17T07:56:41.779Z,99.90
2017-11-17T07:59:09.236Z,99.90
2017-11-17T08:01:36.693Z,99.90
2017-11-17T08:04:04.115Z,99.90
2017-11-17T08:06:32.340Z,99.90
2017-11-17T08:08:59.786Z,99.90
2017-11-17T08:11:27.203Z,99.90
2017-11-17T08:13:55.441Z,99.90
2017-11-17T08:16:22.895Z,99.90
2017-11-17T08:18:50.330Z,99.90
2017-11-17T08:21:18.532Z,99.90
2017-11-17T08:23:45.966Z,99.90
2017-11-17T08:26:13.454Z,99.90
2017-11-17T08:28:40.908Z,99.90
2017-11-17T08:31:08.642Z,99.90
2017-11-17T08:33:36.864Z,99.90
2017-11-17T08:36:04.360Z,99.90
2017-11-17T08:38:31.808Z,99.90
2017-11-17T08:40:59.379Z,99.90
2017-11-17T08:43:26.816Z,99.90
2017-11-17T08:45:54.239Z,99.90
2017-11-17T08:48:22.456Z,99.90
2017-11-17T08:50:49.930Z,99.90
2017-11-17T08:53:17.352Z,99.90
2017-11-17T08:55:44.765Z,99.90
2017-11-17T08:58:12.299Z,99.90
2017-11-17T09:00:39.754Z,99.90
2017-11-17T09:03:07.205Z,99.90
2017-11-17T09:05:34.622Z,99.90
2017-11-17T09:08:02.207Z,99.90
2017-11-17T09:10:30.423Z,99.90
2017-11-17T09:12:57.872Z,99.90
2017-11-17T09:15:25.332Z,99.90
2017-11-17T09:17:53.203Z,99.90
2017-11-17T09:20:20.623Z,99.90
2017-11-17T09:22:48.034Z,99.90
2017-11-17T09:25:15.451Z,99.90
2017-11-17T09:27:43.643Z,99.90
2017-11-17T09:30:11.138Z,99.90
2017-11-17T09:32:38.646Z,99.90
2017-11-17T09:35:06.067Z,99.90
2017-11-17T09:37:33.493Z,99.90
2017-11-17T09:40:00.928Z,99.90
2017-11-17T09:42:29.138Z,99.90
2017-11-17T09:44:56.819Z,99.90
2017-11-17T09:47:24.242Z,99.90
2017-11-17T09:49:52.466Z,99.90
2017-11-17T09:52:19.919Z,99.90
2017-11-17T09:54:47.393Z,99.90
2017-11-17T09:57:14.815Z,99.90
2017-11-17T09:59:42.397Z,99.90
2017-11-17T10:02:09.815Z,99.90
2017-11-17T10:04:38.011Z,99.90
2017-11-17T10:07:06.212Z,99.90
2017-11-17T10:09:33.631Z,99.90
2017-11-17T10:12:01.047Z,99.90
2017-11-17T10:14:28.514Z,99.90
2017-11-17T10:16:55.967Z,99.90
2017-11-17T10:19:23.391Z,99.90
2017-11-17T10:21:52.478Z,99.90
2017-11-17T10:24:20.087Z,99.90
2017-11-17T10:26:48.974Z,99.90
2017-11-17T10:29:18.344Z,99.90
2017-11-17T10:31:45.849Z,99.90
2017-11-17T10:34:13.270Z,99.90
2017-11-17T10:36:41.495Z,99.90
2017-11-17T10:39:08.966Z,99.90
2017-11-17T10:41:36.379Z,99.90
2017-11-17T10:44:04.572Z,99.90
2017-11-17T10:46:32.060Z,99.90
2017-11-17T10:49:01.245Z,99.90
2017-11-17T10:51:28.679Z,99.90
2017-11-17T10:53:56.909Z,99.90
2017-11-17T10:56:25.238Z,99.90
2017-11-17T10:58:53.425Z,99.90
2017-11-17T11:01:20.916Z,99.90
2017-11-17T11:03:48.376Z,99.90
2017-11-17T11:06:15.796Z,99.90
2017-11-17T11:08:44.019Z,99.90
2017-11-17T11:11:17.025Z,99.90
2017-11-17T11:13:44.568Z,99.90
2017-11-17T11:16:11.991Z,99.90
2017-11-17T11:18:40.202Z,99.90
2017-11-17T11:21:07.622Z,99.90
2017-11-17T11:23:35.822Z,99.90
2017-11-17T11:26:03.249Z,99.90
2017-11-17T11:28:30.685Z,99.90
2017-11-17T11:30:58.104Z,99.90
2017-11-17T11:33:25.539Z,99.90
2017-11-17T11:35:53.763Z,99.90
2017-11-17T11:38:21.194Z,99.90
2017-11-17T11:40:48.619Z,99.90
2017-11-17T11:43:16.147Z,99.90
2017-11-17T11:45:43.698Z,99.90
2017-11-17T11:48:11.175Z,99.90
2017-11-17T11:50:38.596Z,99.90
2017-11-17T11:53:06.804Z,99.90
2017-11-17T11:55:34.272Z,99.90
2017-11-17T11:58:01.691Z,99.90
2017-11-17T12:00:29.915Z,99.90
2017-11-17T12:02:57.367Z,99.90
2017-11-17T12:05:24.828Z,99.90
2017-11-17T12:07:52.300Z,99.90
2017-11-17T12:10:19.767Z,99.90
2017-11-17T12:12:47.216Z,99.90
2017-11-17T12:15:14.651Z,99.90
2017-11-17T12:17:42.075Z,99.90
2017-11-17T12:20:09.624Z,99.40
2017-11-17T12:22:37.266Z,99.90
2017-11-17T12:25:04.731Z,99.90
2017-11-17T12:27:32.278Z,98.90
2017-11-17T12:29:59.746Z,99.30
2017-11-17T12:32:27.180Z,98.60
2017-11-17T12:34:55.377Z,98.50
2017-11-17T12:37:22.794Z,98.50
2017-11-17T12:39:50.231Z,96.20
2017-11-17T12:42:17.679Z,97.40
2017-11-17T12:44:45.140Z,98.60
2017-11-17T12:47:12.599Z,97.80
2017-11-17T12:49:40.068Z,98.00
2017-11-17T12:52:07.491Z,97.60
2017-11-17T12:54:34.926Z,99.30
2017-11-17T12:57:03.159Z,98.50
2017-11-17T12:59:30.589Z,98.40
2017-11-17T13:01:58.080Z,99.20
2017-11-17T13:04:25.539Z,97.70
2017-11-17T13:06:52.999Z,95.50
2017-11-17T13:09:20.468Z,97.50
2017-11-17T13:11:47.910Z,97.90
2017-11-17T13:14:15.383Z,98.10
2017-11-17T13:16:42.809Z,96.70
2017-11-17T13:19:11.019Z,96.50
2017-11-17T13:21:38.491Z,96.40
2017-11-17T13:24:05.948Z,97.70
2017-11-17T13:26:33.367Z,95.90
2017-11-17T13:29:01.586Z,96.20
2017-11-17T13:31:29.056Z,96.20
2017-11-17T13:33:56.595Z,96.20
2017-11-17T13:36:24.007Z,94.20
2017-11-17T13:38:52.252Z,94.60
2017-11-17T13:41:19.695Z,94.60
2017-11-17T13:43:47.119Z,94.40
2017-11-17T13:46:15.320Z,95.60
2017-11-17T13:48:42.802Z,95.30
2017-11-17T13:51:10.322Z,93.00
2017-11-17T13:53:37.736Z,92.40
2017-11-17T13:56:05.167Z,91.90
2017-11-17T13:58:32.655Z,95.00
2017-11-17T14:01:00.118Z,94.90
2017-11-17T14:03:27.539Z,94.80
2017-11-17T14:05:55.735Z,95.00
2017-11-17T14:08:23.271Z,94.90
2017-11-17T14:10:51.500Z,94.90
2017-11-17T14:13:18.924Z,94.80
2017-11-17T14:15:47.131Z,93.40
2017-11-17T14:18:14.551Z,93.40
2017-11-17T14:20:42.747Z,94.50
2017-11-17T14:23:10.163Z,94.50
2017-11-17T14:25:37.599Z,95.60
2017-11-17T14:28:05.057Z,94.90
2017-11-17T14:30:32.520Z,95.20
2017-11-17T14:32:59.943Z,94.10
2017-11-17T14:35:28.155Z,97.00
2017-11-17T14:37:55.624Z,97.00
2017-11-17T14:40:23.127Z,97.20
2017-11-17T14:42:51.332Z,97.80
2017-11-17T14:45:19.548Z,98.30
2017-11-17T14:47:47.602Z,98.30
2017-11-17T14:50:15.067Z,98.20
2017-11-17T14:52:42.637Z,97.10
2017-11-17T14:55:10.184Z,98.20
2017-11-17T14:57:37.600Z,98.20
2017-11-17T15:00:05.025Z,96.90
2017-11-17T15:02:32.444Z,96.70
2017-11-17T15:05:00.662Z,98.60
2017-11-17T15:07:28.111Z,98.60
2017-11-17T15:09:56.386Z,99.30
2017-11-17T15:12:23.868Z,99.30
2017-11-17T15:14:51.336Z,99.90
2017-11-17T15:17:18.760Z,99.90
2017-11-17T15:19:46.185Z,99.90
2017-11-17T15:22:13.717Z,99.90
2017-11-17T15:24:41.139Z,99.90
2017-11-17T15:27:08.627Z,99.90
2017-11-17T15:29:36.104Z,99.90
2017-11-17T15:32:03.612Z,99.90
2017-11-17T15:34:31.947Z,99.90
2017-11-17T15:36:59.374Z,99.90
2017-11-17T15:39:26.812Z,99.90
2017-11-17T15:41:54.999Z,99.90
2017-11-17T15:44:22.513Z,99.90
2017-11-17T15:46:50.032Z,99.90
2017-11-17T15:49:17.525Z,99.90
2017-11-17T15:51:45.078Z,99.90
2017-11-17T15:54:12.530Z,99.90
2017-11-17T15:56:39.936Z,99.90
2017-11-17T15:59:07.557Z,99.90
2017-11-17T16:01:35.032Z,99.90
2017-11-17T16:04:02.486Z,99.90
2017-11-17T16:06:29.911Z,99.90
2017-11-17T16:08:58.099Z,99.90
2017-11-17T16:11:25.587Z,99.90
2017-11-17T16:13:53.015Z,99.90
2017-11-17T16:16:21.331Z,99.90
2017-11-17T16:18:48.791Z,99.90
2017-11-17T16:21:16.251Z,99.90
2017-11-17T16:23:43.714Z,99.90
2017-11-17T16:26:11.142Z,99.90
2017-11-17T16:28:39.454Z,99.90
2017-11-17T16:31:06.930Z,99.90
2017-11-17T16:33:34.347Z,99.90
2017-11-17T16:36:02.536Z,99.90
2017-11-17T16:38:29.964Z,99.90
2017-11-17T16:40:57.398Z,99.90
2017-11-17T16:43:24.939Z,99.90
2017-11-17T16:45:52.434Z,99.90
2017-11-17T16:48:19.850Z,99.90
2017-11-17T16:50:47.329Z,99.90
2017-11-17T16:53:14.784Z,99.90
2017-11-17T16:55:42.252Z,99.90
2017-11-17T16:58:09.680Z,99.90
2017-11-17T17:00:37.100Z,99.90
2017-11-17T17:03:04.532Z,99.90
2017-11-17T17:05:31.989Z,99.90
2017-11-17T17:07:59.456Z,99.90
2017-11-17T17:10:26.878Z,99.90
2017-11-17T17:12:55.073Z,99.90
2017-11-17T17:15:22.496Z,99.90
2017-11-17T17:17:49.918Z,99.90
2017-11-17T17:20:17.346Z,99.90
2017-11-17T17:22:44.779Z,99.90
2017-11-17T17:25:12.238Z,99.90
2017-11-17T17:27:39.625Z,99.90
2017-11-17T17:30:07.115Z,99.90
2017-11-17T17:32:34.543Z,99.90
2017-11-17T17:35:02.760Z,99.90
2017-11-17T17:37:30.204Z,99.90
2017-11-17T17:39:57.619Z,99.90
2017-11-17T17:42:25.135Z,99.90
2017-11-17T17:44:52.550Z,99.90
2017-11-17T17:47:20.739Z,99.90
2017-11-17T17:49:48.951Z,99.90
2017-11-17T17:52:16.375Z,99.90
2017-11-17T17:54:44.594Z,99.90
2017-11-17T17:57:12.052Z,99.90
2017-11-17T17:59:39.483Z,99.90
2017-11-17T18:02:07.691Z,99.90
2017-11-17T18:04:35.154Z,99.90
2017-11-17T18:07:02.620Z,99.90
2017-11-17T18:09:30.078Z,99.90
2017-11-17T18:11:57.513Z,99.90
2017-11-17T18:14:25.688Z,99.90
2017-11-17T18:16:53.134Z,99.90
2017-11-17T18:19:21.311Z,99.90
2017-11-17T18:21:49.618Z,99.90
2017-11-17T18:24:17.090Z,99.90
2017-11-17T18:26:44.511Z,99.90
2017-11-17T18:29:12.738Z,99.90
2017-11-17T18:31:40.216Z,99.90
2017-11-17T18:34:07.677Z,99.90
2017-11-17T18:36:35.135Z,99.90
2017-11-17T18:39:02.572Z,99.90
2017-11-17T18:41:30.028Z,99.90
2017-11-17T18:43:57.597Z,99.90
2017-11-17T18:46:25.112Z,99.90
2017-11-17T18:48:52.630Z,99.90
2017-11-17T18:51:20.091Z,99.90
2017-11-17T18:53:47.514Z,99.90
2017-11-17T18:56:15.843Z,99.90
2017-11-17T18:58:43.338Z,99.90
2017-11-17T19:01:10.758Z,99.90
2017-11-17T19:03:38.938Z,99.90
2017-11-17T19:06:06.387Z,99.90
2017-11-17T19:08:34.580Z,99.90
2017-11-17T19:11:02.124Z,99.90
2017-11-17T19:13:29.670Z,99.90
2017-11-17T19:15:57.163Z,99.90
2017-11-17T19:18:24.819Z,99.90
2017-11-17T19:20:52.239Z,99.90
2017-11-17T19:23:21.476Z,99.90
2017-11-17T19:25:48.895Z,99.90
2017-11-17T19:28:16.355Z,99.90
2017-11-17T19:30:43.787Z,99.90
2017-11-17T19:33:11.236Z,99.90
2017-11-17T19:35:38.801Z,99.90
2017-11-17T19:38:07.076Z,99.90
2017-11-17T19:40:34.548Z,99.90
2017-11-17T19:43:02.021Z,99.90
2017-11-17T19:45:29.411Z,99.90
2017-11-17T19:47:57.635Z,99.90
2017-11-17T19:50:25.056Z,99.90
2017-11-17T19:52:52.583Z,99.90
2017-11-17T19:55:20.004Z,99.90
2017-11-17T19:57:47.432Z,99.90
2017-11-17T20:00:15.675Z,99.90
2017-11-17T20:02:43.103Z,99.90
2017-11-17T20:05:10.533Z,99.90
2017-11-17T20:07:38.739Z,99.90
2017-11-17T20:10:06.248Z,99.90
2017-11-17T20:12:33.671Z,99.90
2017-11-17T20:15:01.177Z,99.90
2017-11-17T20:17:28.583Z,99.90
2017-11-17T20:19:56.003Z,99.90
2017-11-17T20:22:23.419Z,99.90
2017-11-17T20:24:50.843Z,99.90
2017-11-17T20:27:19.076Z,99.90
2017-11-17T20:29:46.524Z,99.90
2017-11-17T20:32:13.963Z,99.90
2017-11-17T20:34:41.547Z,99.90
2017-11-17T20:37:08.988Z,99.90
2017-11-17T20:39:36.514Z,99.90
2017-11-17T20:42:04.152Z,99.90
2017-11-17T20:44:31.923Z,99.90
2017-11-17T20:46:59.381Z,99.90
2017-11-17T20:49:28.538Z,99.90
2017-11-17T20:51:56.577Z,99.90
2017-11-17T20:54:24.253Z,99.90
2017-11-17T20:56:55.556Z,99.90
2017-11-17T20:59:22.979Z,99.90
2017-11-17T21:01:51.768Z,99.90
2017-11-17T21:04:19.313Z,99.90
2017-11-17T21:06:47.061Z,99.90
2017-11-17T21:09:14.484Z,99.90
2017-11-17T21:11:42.061Z,99.90
2017-11-17T21:14:09.540Z,99.90
2017-11-17T21:16:36.989Z,99.90
2017-11-17T21:19:04.452Z,99.90
2017-11-17T21:21:31.906Z,99.90
2017-11-17T21:23:59.445Z,99.90
2017-11-17T21:26:26.952Z,99.90
2017-11-17T21:28:54.385Z,99.90
2017-11-17T21:31:21.802Z,99.90
2017-11-17T21:33:49.258Z,99.90
2017-11-17T21:36:16.682Z,99.90
2017-11-17T21:38:44.120Z,99.90
2017-11-17T21:41:11.623Z,99.90
2017-11-17T21:43:39.199Z,99.90
2017-11-17T21:46:06.628Z,99.90
2017-11-17T21:48:34.149Z,99.90
2017-11-17T21:51:01.763Z,99.90
2017-11-17T21:53:29.179Z,99.90
2017-11-17T21:55:57.370Z,99.90
2017-11-17T21:58:25.594Z,99.90
2017-11-17T22:00:53.026Z,99.90
2017-11-17T22:03:20.455Z,99.90
2017-11-17T22:05:48.696Z,99.90
2017-11-17T22:08:16.136Z,99.90
2017-11-17T22:10:43.564Z,99.90
2017-11-17T22:13:11.742Z,99.90
2017-11-17T22:15:39.292Z,99.90
2017-11-17T22:18:07.565Z,99.90
2017-11-17T22:20:35.014Z,99.90
2017-11-17T22:23:02.555Z,99.90
2017-11-17T22:25:29.975Z,99.90
2017-11-17T22:27:57.429Z,99.90
2017-11-17T22:30:24.851Z,99.90
2017-11-17T22:32:52.384Z,99.90
2017-11-17T22:35:19.815Z,99.90
2017-11-17T22:37:47.299Z,99.90
2017-11-17T22:40:14.772Z,99.90
2017-11-17T22:42:42.228Z,99.90
2017-11-17T22:45:09.655Z,99.90
2017-11-17T22:47:37.848Z,99.90
2017-11-17T22:50:05.270Z,99.90
2017-11-17T22:52:32.683Z,99.90
2017-11-17T22:55:00.196Z,99.90
2017-11-17T22:57:27.673Z,99.90
2017-11-17T22:59:56.107Z,99.90
2017-11-17T23:02:24.344Z,99.90
2017-11-17T23:04:51.836Z,99.90
2017-11-17T23:07:19.252Z,99.90
2017-11-17T23:09:47.450Z,99.90
2017-11-17T23:12:14.868Z,99.90
2017-11-17T23:14:42.391Z,99.90
2017-11-17T23:17:09.872Z,99.90
2017-11-17T23:19:37.286Z,99.90
2017-11-17T23:22:04.775Z,99.90
2017-11-17T23:24:32.234Z,99.90
2017-11-17T23:26:59.707Z,99.90
2017-11-17T23:29:27.119Z,99.90
2017-11-17T23:31:55.311Z,99.90
2017-11-17T23:34:22.808Z,99.90
2017-11-17T23:36:50.258Z,99.90
2017-11-17T23:39:17.735Z,99.90
2017-11-17T23:41:45.155Z,99.90
2017-11-17T23:44:12.732Z,99.90
2017-11-17T23:46:40.211Z,99.90
2017-11-17T23:49:07.786Z,99.90
2017-11-17T23:51:35.311Z,99.90
2017-11-17T23:54:02.804Z,99.90
2017-11-17T23:56:30.236Z,99.90
2017-11-17T23:58:57.719Z,99.90
